sensor_id;sensor_type;location;lat;lon;timestamp;P1;durP1;ratioP1;P2;durP2;ratioP2
77217;SDS011;66214;51.302;17.068;2024-03-02T00:01:37;63.60;;;32.80;;
77217;SDS011;66214;51.302;17.068;2024-03-02T00:04:07;74.50;;;36.00;;
77217;SDS011;66214;51.302;17.068;2024-03-02T00:06:36;69.60;;;35.40;;
77217;SDS011;66214;51.302;17.068;2024-03-02T00:09:09;66.00;;;33.30;;
77217;SDS011;66214;51.302;17.068;2024-03-02T00:11:40;68.90;;;35.80;;
77217;SDS011;66214;51.302;17.068;2024-03-02T00:14:09;63.90;;;33.40;;
77217;SDS011;66214;51.302;17.068;2024-03-02T00:16:37;68.10;;;33.20;;
77217;SDS011;66214;51.302;17.068;2024-03-02T00:19:07;70.20;;;33.00;;
77217;SDS011;66214;51.302;17.068;2024-03-02T00:21:37;66.00;;;31.40;;
77217;SDS011;66214;51.302;17.068;2024-03-02T00:24:21;69.80;;;34.50;;
77217;SDS011;66214;51.302;17.068;2024-03-02T00:26:56;68.40;;;33.60;;
77217;SDS011;66214;51.302;17.068;2024-03-02T00:29:24;68.00;;;32.90;;
77217;SDS011;66214;51.302;17.068;2024-03-02T00:31:53;72.70;;;36.80;;
77217;SDS011;66214;51.302;17.068;2024-03-02T00:34:22;78.60;;;34.60;;
77217;SDS011;66214;51.302;17.068;2024-03-02T00:36:51;69.90;;;36.20;;
77217;SDS011;66214;51.302;17.068;2024-03-02T00:39:19;76.50;;;35.90;;
77217;SDS011;66214;51.302;17.068;2024-03-02T00:41:48;67.00;;;34.40;;
77217;SDS011;66214;51.302;17.068;2024-03-02T00:44:25;74.20;;;36.30;;
77217;SDS011;66214;51.302;17.068;2024-03-02T00:47:02;63.80;;;32.10;;
77217;SDS011;66214;51.302;17.068;2024-03-02T00:49:31;73.00;;;36.20;;
77217;SDS011;66214;51.302;17.068;2024-03-02T00:52:00;64.10;;;30.40;;
77217;SDS011;66214;51.302;17.068;2024-03-02T00:54:29;73.60;;;36.00;;
77217;SDS011;66214;51.302;17.068;2024-03-02T00:56:58;80.30;;;37.90;;
77217;SDS011;66214;51.302;17.068;2024-03-02T00:59:28;80.30;;;36.90;;
77217;SDS011;66214;51.302;17.068;2024-03-02T01:01:58;72.30;;;35.00;;
77217;SDS011;66214;51.302;17.068;2024-03-02T01:04:27;73.30;;;36.10;;
77217;SDS011;66214;51.302;17.068;2024-03-02T01:06:56;76.00;;;36.20;;
77217;SDS011;66214;51.302;17.068;2024-03-02T01:09:26;74.80;;;35.80;;
77217;SDS011;66214;51.302;17.068;2024-03-02T01:11:55;78.90;;;36.00;;
77217;SDS011;66214;51.302;17.068;2024-03-02T01:14:23;76.80;;;35.80;;
77217;SDS011;66214;51.302;17.068;2024-03-02T01:16:52;70.40;;;35.70;;
77217;SDS011;66214;51.302;17.068;2024-03-02T01:19:21;77.90;;;36.70;;
77217;SDS011;66214;51.302;17.068;2024-03-02T01:21:50;82.60;;;37.30;;
77217;SDS011;66214;51.302;17.068;2024-03-02T01:24:18;77.10;;;37.40;;
77217;SDS011;66214;51.302;17.068;2024-03-02T01:26:47;78.50;;;38.20;;
77217;SDS011;66214;51.302;17.068;2024-03-02T01:29:15;78.00;;;36.90;;
77217;SDS011;66214;51.302;17.068;2024-03-02T01:31:44;72.40;;;36.40;;
77217;SDS011;66214;51.302;17.068;2024-03-02T01:34:14;68.50;;;34.40;;
77217;SDS011;66214;51.302;17.068;2024-03-02T01:36:44;73.30;;;37.00;;
77217;SDS011;66214;51.302;17.068;2024-03-02T01:39:13;75.70;;;36.30;;
77217;SDS011;66214;51.302;17.068;2024-03-02T01:41:42;76.70;;;34.90;;
77217;SDS011;66214;51.302;17.068;2024-03-02T01:44:11;79.00;;;36.90;;
77217;SDS011;66214;51.302;17.068;2024-03-02T01:46:41;79.00;;;36.90;;
77217;SDS011;66214;51.302;17.068;2024-03-02T01:49:10;74.40;;;36.80;;
77217;SDS011;66214;51.302;17.068;2024-03-02T01:51:39;73.60;;;35.90;;
77217;SDS011;66214;51.302;17.068;2024-03-02T01:54:08;68.50;;;34.00;;
77217;SDS011;66214;51.302;17.068;2024-03-02T01:56:37;68.40;;;33.30;;
77217;SDS011;66214;51.302;17.068;2024-03-02T01:59:06;72.10;;;35.90;;
77217;SDS011;66214;51.302;17.068;2024-03-02T02:01:34;71.50;;;35.50;;
77217;SDS011;66214;51.302;17.068;2024-03-02T05:03:54;62.70;;;29.20;;
77217;SDS011;66214;51.302;17.068;2024-03-02T05:06:23;58.30;;;28.40;;
77217;SDS011;66214;51.302;17.068;2024-03-02T05:08:52;62.60;;;30.20;;
77217;SDS011;66214;51.302;17.068;2024-03-02T05:11:20;57.90;;;28.60;;
77217;SDS011;66214;51.302;17.068;2024-03-02T05:14:07;54.50;;;27.00;;
77217;SDS011;66214;51.302;17.068;2024-03-02T05:16:38;58.20;;;29.20;;
77217;SDS011;66214;51.302;17.068;2024-03-02T05:19:07;57.70;;;29.70;;
77217;SDS011;66214;51.302;17.068;2024-03-02T05:21:35;61.80;;;28.80;;
77217;SDS011;66214;51.302;17.068;2024-03-02T05:24:04;64.40;;;30.50;;
77217;SDS011;66214;51.302;17.068;2024-03-02T05:26:33;58.40;;;30.20;;
77217;SDS011;66214;51.302;17.068;2024-03-02T05:29:02;60.10;;;28.70;;
77217;SDS011;66214;51.302;17.068;2024-03-02T05:31:31;60.60;;;29.80;;
77217;SDS011;66214;51.302;17.068;2024-03-02T05:34:00;61.40;;;29.90;;
77217;SDS011;66214;51.302;17.068;2024-03-02T05:36:28;57.60;;;28.90;;
77217;SDS011;66214;51.302;17.068;2024-03-02T05:38:57;57.80;;;28.40;;
77217;SDS011;66214;51.302;17.068;2024-03-02T05:41:25;57.00;;;28.40;;
77217;SDS011;66214;51.302;17.068;2024-03-02T05:43:54;59.40;;;29.10;;
77217;SDS011;66214;51.302;17.068;2024-03-02T05:46:22;58.70;;;28.80;;
77217;SDS011;66214;51.302;17.068;2024-03-02T05:48:51;62.50;;;30.40;;
77217;SDS011;66214;51.302;17.068;2024-03-02T05:51:19;60.70;;;29.90;;
77217;SDS011;66214;51.302;17.068;2024-03-02T05:53:47;65.70;;;29.90;;
77217;SDS011;66214;51.302;17.068;2024-03-02T05:56:15;59.20;;;28.20;;
77217;SDS011;66214;51.302;17.068;2024-03-02T05:58:44;57.70;;;29.20;;
77217;SDS011;66214;51.302;17.068;2024-03-02T06:01:41;54.80;;;27.20;;
77217;SDS011;66214;51.302;17.068;2024-03-02T06:04:10;53.10;;;27.70;;
77217;SDS011;66214;51.302;17.068;2024-03-02T06:06:40;60.60;;;29.60;;
77217;SDS011;66214;51.302;17.068;2024-03-02T06:09:09;56.40;;;28.20;;
77217;SDS011;66214;51.302;17.068;2024-03-02T06:11:41;54.40;;;26.80;;
77217;SDS011;66214;51.302;17.068;2024-03-02T06:14:11;60.20;;;30.20;;
77217;SDS011;66214;51.302;17.068;2024-03-02T06:16:40;61.40;;;29.70;;
77217;SDS011;66214;51.302;17.068;2024-03-02T06:19:10;56.90;;;28.90;;
77217;SDS011;66214;51.302;17.068;2024-03-02T06:21:38;59.30;;;28.60;;
77217;SDS011;66214;51.302;17.068;2024-03-02T06:24:08;60.60;;;28.80;;
77217;SDS011;66214;51.302;17.068;2024-03-02T06:26:40;56.80;;;28.30;;
77217;SDS011;66214;51.302;17.068;2024-03-02T06:29:10;52.30;;;26.40;;
77217;SDS011;66214;51.302;17.068;2024-03-02T06:31:38;55.20;;;27.80;;
77217;SDS011;66214;51.302;17.068;2024-03-02T06:34:08;61.60;;;30.20;;
77217;SDS011;66214;51.302;17.068;2024-03-02T06:39:59;61.60;;;29.60;;
77217;SDS011;66214;51.302;17.068;2024-03-02T06:42:28;59.60;;;29.30;;
77217;SDS011;66214;51.302;17.068;2024-03-02T06:45:02;58.20;;;28.20;;
77217;SDS011;66214;51.302;17.068;2024-03-02T06:47:31;58.70;;;29.10;;
77217;SDS011;66214;51.302;17.068;2024-03-02T06:50:00;55.30;;;29.90;;
77217;SDS011;66214;51.302;17.068;2024-03-02T06:52:29;61.20;;;30.20;;
77217;SDS011;66214;51.302;17.068;2024-03-02T06:54:57;54.80;;;27.20;;
77217;SDS011;66214;51.302;17.068;2024-03-02T06:57:26;59.10;;;30.60;;
77217;SDS011;66214;51.302;17.068;2024-03-02T06:59:56;58.10;;;30.50;;
77217;SDS011;66214;51.302;17.068;2024-03-02T07:02:26;65.00;;;31.80;;
77217;SDS011;66214;51.302;17.068;2024-03-02T07:04:55;60.60;;;30.40;;
77217;SDS011;66214;51.302;17.068;2024-03-02T07:10:46;56.20;;;28.90;;
77217;SDS011;66214;51.302;17.068;2024-03-02T07:13:15;58.50;;;30.10;;
77217;SDS011;66214;51.302;17.068;2024-03-02T07:15:43;57.60;;;30.30;;
77217;SDS011;66214;51.302;17.068;2024-03-02T07:18:30;63.50;;;30.70;;
77217;SDS011;66214;51.302;17.068;2024-03-02T07:20:59;59.20;;;30.10;;
77217;SDS011;66214;51.302;17.068;2024-03-02T07:23:29;60.70;;;30.50;;
77217;SDS011;66214;51.302;17.068;2024-03-02T07:25:58;59.90;;;31.30;;
77217;SDS011;66214;51.302;17.068;2024-03-02T07:28:27;57.80;;;30.70;;
77217;SDS011;66214;51.302;17.068;2024-03-02T07:31:02;60.30;;;29.40;;
77217;SDS011;66214;51.302;17.068;2024-03-02T07:33:35;61.50;;;30.60;;
77217;SDS011;66214;51.302;17.068;2024-03-02T07:36:03;59.20;;;30.40;;
77217;SDS011;66214;51.302;17.068;2024-03-02T07:38:32;60.20;;;30.20;;
77217;SDS011;66214;51.302;17.068;2024-03-02T07:41:02;59.40;;;29.50;;
77217;SDS011;66214;51.302;17.068;2024-03-02T07:43:32;60.80;;;30.00;;
77217;SDS011;66214;51.302;17.068;2024-03-02T07:46:01;58.30;;;29.90;;
77217;SDS011;66214;51.302;17.068;2024-03-02T07:48:30;51.50;;;29.20;;
77217;SDS011;66214;51.302;17.068;2024-03-02T07:50:59;52.00;;;27.50;;
77217;SDS011;66214;51.302;17.068;2024-03-02T07:53:28;59.70;;;31.10;;
77217;SDS011;66214;51.302;17.068;2024-03-02T07:55:56;62.20;;;33.10;;
77217;SDS011;66214;51.302;17.068;2024-03-02T07:58:30;56.00;;;30.40;;
77217;SDS011;66214;51.302;17.068;2024-03-02T08:03:54;56.30;;;29.80;;
77217;SDS011;66214;51.302;17.068;2024-03-02T08:06:24;59.30;;;29.70;;
77217;SDS011;66214;51.302;17.068;2024-03-02T08:08:56;59.50;;;29.90;;
77217;SDS011;66214;51.302;17.068;2024-03-02T08:11:26;58.40;;;29.00;;
77217;SDS011;66214;51.302;17.068;2024-03-02T08:13:58;52.10;;;28.30;;
77217;SDS011;66214;51.302;17.068;2024-03-02T08:16:27;59.20;;;30.00;;
77217;SDS011;66214;51.302;17.068;2024-03-02T08:18:55;57.90;;;32.80;;
77217;SDS011;66214;51.302;17.068;2024-03-02T08:21:26;58.30;;;31.40;;
77217;SDS011;66214;51.302;17.068;2024-03-02T08:23:54;58.10;;;29.90;;
77217;SDS011;66214;51.302;17.068;2024-03-02T08:26:22;56.90;;;28.10;;
77217;SDS011;66214;51.302;17.068;2024-03-02T08:28:50;53.90;;;28.60;;
77217;SDS011;66214;51.302;17.068;2024-03-02T08:31:19;50.10;;;26.80;;
77217;SDS011;66214;51.302;17.068;2024-03-02T08:33:47;53.10;;;27.00;;
77217;SDS011;66214;51.302;17.068;2024-03-02T08:36:15;50.70;;;26.90;;
77217;SDS011;66214;51.302;17.068;2024-03-02T08:38:44;54.80;;;28.00;;
77217;SDS011;66214;51.302;17.068;2024-03-02T08:41:13;52.40;;;27.70;;
77217;SDS011;66214;51.302;17.068;2024-03-02T08:43:44;52.70;;;27.10;;
77217;SDS011;66214;51.302;17.068;2024-03-02T08:46:12;52.30;;;27.90;;
77217;SDS011;66214;51.302;17.068;2024-03-02T08:52:12;50.00;;;26.50;;
77217;SDS011;66214;51.302;17.068;2024-03-02T08:54:42;53.30;;;29.80;;
77217;SDS011;66214;51.302;17.068;2024-03-02T08:57:11;49.30;;;25.40;;
77217;SDS011;66214;51.302;17.068;2024-03-02T08:59:40;54.70;;;29.00;;
77217;SDS011;66214;51.302;17.068;2024-03-02T09:02:08;50.40;;;26.60;;
77217;SDS011;66214;51.302;17.068;2024-03-02T09:04:38;47.90;;;26.40;;
77217;SDS011;66214;51.302;17.068;2024-03-02T09:07:07;49.10;;;26.40;;
77217;SDS011;66214;51.302;17.068;2024-03-02T09:09:35;45.00;;;25.30;;
77217;SDS011;66214;51.302;17.068;2024-03-02T09:15:36;49.80;;;26.20;;
77217;SDS011;66214;51.302;17.068;2024-03-02T09:18:07;46.00;;;25.60;;
77217;SDS011;66214;51.302;17.068;2024-03-02T09:20:35;44.10;;;24.60;;
77217;SDS011;66214;51.302;17.068;2024-03-02T09:23:04;45.60;;;25.60;;
77217;SDS011;66214;51.302;17.068;2024-03-02T09:25:32;47.10;;;27.90;;
77217;SDS011;66214;51.302;17.068;2024-03-02T09:28:04;43.40;;;25.80;;
77217;SDS011;66214;51.302;17.068;2024-03-02T09:30:33;43.20;;;24.70;;
77217;SDS011;66214;51.302;17.068;2024-03-02T09:33:01;44.90;;;25.60;;
77217;SDS011;66214;51.302;17.068;2024-03-02T09:35:29;43.50;;;24.20;;
77217;SDS011;66214;51.302;17.068;2024-03-02T09:37:57;45.30;;;24.40;;
77217;SDS011;66214;51.302;17.068;2024-03-02T09:40:26;42.60;;;25.20;;
77217;SDS011;66214;51.302;17.068;2024-03-02T09:46:11;43.90;;;25.20;;
77217;SDS011;66214;51.302;17.068;2024-03-02T09:48:39;44.80;;;23.60;;
77217;SDS011;66214;51.302;17.068;2024-03-02T09:51:08;45.90;;;24.40;;
77217;SDS011;66214;51.302;17.068;2024-03-02T09:53:37;42.10;;;23.70;;
77217;SDS011;66214;51.302;17.068;2024-03-02T09:56:06;44.30;;;24.10;;
77217;SDS011;66214;51.302;17.068;2024-03-02T09:58:39;42.60;;;24.00;;
77217;SDS011;66214;51.302;17.068;2024-03-02T10:01:07;39.90;;;23.20;;
77217;SDS011;66214;51.302;17.068;2024-03-02T10:03:38;41.50;;;22.60;;
77217;SDS011;66214;51.302;17.068;2024-03-02T10:06:24;39.60;;;23.10;;
77217;SDS011;66214;51.302;17.068;2024-03-02T10:08:55;41.10;;;21.70;;
77217;SDS011;66214;51.302;17.068;2024-03-02T10:14:07;39.30;;;22.90;;
77217;SDS011;66214;51.302;17.068;2024-03-02T10:16:44;36.30;;;20.80;;
77217;SDS011;66214;51.302;17.068;2024-03-02T10:19:23;37.40;;;22.10;;
77217;SDS011;66214;51.302;17.068;2024-03-02T10:21:53;36.50;;;21.30;;
77217;SDS011;66214;51.302;17.068;2024-03-02T10:24:22;38.90;;;21.20;;
77217;SDS011;66214;51.302;17.068;2024-03-02T10:26:53;34.20;;;20.60;;
77217;SDS011;66214;51.302;17.068;2024-03-02T10:29:22;38.50;;;20.90;;
77217;SDS011;66214;51.302;17.068;2024-03-02T10:31:55;36.90;;;21.10;;
77217;SDS011;66214;51.302;17.068;2024-03-02T10:34:24;32.60;;;19.50;;
77217;SDS011;66214;51.302;17.068;2024-03-02T10:36:54;35.20;;;20.00;;
77217;SDS011;66214;51.302;17.068;2024-03-02T10:39:24;35.30;;;20.80;;
77217;SDS011;66214;51.302;17.068;2024-03-02T10:41:53;33.50;;;20.50;;
77217;SDS011;66214;51.302;17.068;2024-03-02T10:44:25;39.70;;;20.30;;
77217;SDS011;66214;51.302;17.068;2024-03-02T10:47:04;31.20;;;18.00;;
77217;SDS011;66214;51.302;17.068;2024-03-02T10:49:33;36.60;;;19.90;;
77217;SDS011;66214;51.302;17.068;2024-03-02T10:52:02;33.80;;;20.00;;
77217;SDS011;66214;51.302;17.068;2024-03-02T10:54:31;29.40;;;18.30;;
77217;SDS011;66214;51.302;17.068;2024-03-02T10:57:04;32.20;;;18.50;;
77217;SDS011;66214;51.302;17.068;2024-03-02T10:59:56;34.40;;;19.10;;
77217;SDS011;66214;51.302;17.068;2024-03-02T11:03:54;31.50;;;18.00;;
77217;SDS011;66214;51.302;17.068;2024-03-02T11:06:26;32.80;;;18.80;;
77217;SDS011;66214;51.302;17.068;2024-03-02T11:08:58;32.00;;;17.70;;
77217;SDS011;66214;51.302;17.068;2024-03-02T11:11:32;35.80;;;19.20;;
77217;SDS011;66214;51.302;17.068;2024-03-02T11:14:24;30.40;;;17.60;;
77217;SDS011;66214;51.302;17.068;2024-03-02T11:16:54;29.40;;;18.00;;
77217;SDS011;66214;51.302;17.068;2024-03-02T11:19:24;31.20;;;18.80;;
77217;SDS011;66214;51.302;17.068;2024-03-02T11:21:54;30.00;;;18.30;;
77217;SDS011;66214;51.302;17.068;2024-03-02T11:26:53;30.50;;;17.60;;
77217;SDS011;66214;51.302;17.068;2024-03-02T11:32:27;29.40;;;16.80;;
77217;SDS011;66214;51.302;17.068;2024-03-02T11:34:59;30.50;;;17.90;;
77217;SDS011;66214;51.302;17.068;2024-03-02T11:37:32;31.80;;;18.20;;
77217;SDS011;66214;51.302;17.068;2024-03-02T11:40:01;27.70;;;17.00;;
77217;SDS011;66214;51.302;17.068;2024-03-02T11:42:29;34.20;;;18.00;;
77217;SDS011;66214;51.302;17.068;2024-03-02T11:44:59;30.70;;;18.00;;
77217;SDS011;66214;51.302;17.068;2024-03-02T11:47:31;28.50;;;17.60;;
77217;SDS011;66214;51.302;17.068;2024-03-02T11:50:03;32.60;;;18.50;;
77217;SDS011;66214;51.302;17.068;2024-03-02T11:52:36;30.50;;;17.80;;
77217;SDS011;66214;51.302;17.068;2024-03-02T11:55:09;28.20;;;16.70;;
77217;SDS011;66214;51.302;17.068;2024-03-02T11:57:39;27.50;;;15.60;;
77217;SDS011;66214;51.302;17.068;2024-03-02T12:00:17;27.70;;;15.90;;
77217;SDS011;66214;51.302;17.068;2024-03-02T12:02:47;27.40;;;15.10;;
77217;SDS011;66214;51.302;17.068;2024-03-02T12:05:33;27.50;;;15.70;;
77217;SDS011;66214;51.302;17.068;2024-03-02T12:08:03;28.40;;;15.70;;
77217;SDS011;66214;51.302;17.068;2024-03-02T12:10:36;26.40;;;16.10;;
77217;SDS011;66214;51.302;17.068;2024-03-02T12:13:07;31.50;;;17.70;;
77217;SDS011;66214;51.302;17.068;2024-03-02T12:15:39;28.80;;;17.10;;
77217;SDS011;66214;51.302;17.068;2024-03-02T12:18:09;29.20;;;15.80;;
77217;SDS011;66214;51.302;17.068;2024-03-02T12:20:38;26.00;;;16.40;;
77217;SDS011;66214;51.302;17.068;2024-03-02T12:23:07;30.00;;;16.60;;
77217;SDS011;66214;51.302;17.068;2024-03-02T12:25:36;29.00;;;16.40;;
77217;SDS011;66214;51.302;17.068;2024-03-02T12:28:05;27.60;;;15.30;;
77217;SDS011;66214;51.302;17.068;2024-03-02T12:30:35;31.50;;;16.80;;
77217;SDS011;66214;51.302;17.068;2024-03-02T12:33:05;29.00;;;17.30;;
77217;SDS011;66214;51.302;17.068;2024-03-02T12:35:35;31.70;;;17.00;;
77217;SDS011;66214;51.302;17.068;2024-03-02T12:38:09;32.00;;;17.80;;
77217;SDS011;66214;51.302;17.068;2024-03-02T12:40:39;27.70;;;16.00;;
77217;SDS011;66214;51.302;17.068;2024-03-02T12:43:08;27.90;;;15.90;;
77217;SDS011;66214;51.302;17.068;2024-03-02T12:45:36;27.70;;;16.10;;
77217;SDS011;66214;51.302;17.068;2024-03-02T12:48:06;30.50;;;16.60;;
77217;SDS011;66214;51.302;17.068;2024-03-02T12:50:34;28.60;;;16.50;;
77217;SDS011;66214;51.302;17.068;2024-03-02T12:53:03;26.10;;;16.30;;
77217;SDS011;66214;51.302;17.068;2024-03-02T12:55:32;26.90;;;16.00;;
77217;SDS011;66214;51.302;17.068;2024-03-02T12:58:02;27.60;;;16.40;;
77217;SDS011;66214;51.302;17.068;2024-03-02T13:00:31;26.60;;;16.80;;
77217;SDS011;66214;51.302;17.068;2024-03-02T13:03:04;28.70;;;15.70;;
77217;SDS011;66214;51.302;17.068;2024-03-02T13:05:35;28.10;;;16.00;;
77217;SDS011;66214;51.302;17.068;2024-03-02T13:08:06;28.00;;;16.30;;
77217;SDS011;66214;51.302;17.068;2024-03-02T13:10:36;28.10;;;16.50;;
77217;SDS011;66214;51.302;17.068;2024-03-02T13:13:05;28.20;;;16.00;;
77217;SDS011;66214;51.302;17.068;2024-03-02T13:15:34;25.60;;;15.50;;
77217;SDS011;66214;51.302;17.068;2024-03-02T13:18:03;26.00;;;15.00;;
77217;SDS011;66214;51.302;17.068;2024-03-02T13:20:33;25.10;;;13.70;;
77217;SDS011;66214;51.302;17.068;2024-03-02T13:23:03;24.80;;;13.80;;
77217;SDS011;66214;51.302;17.068;2024-03-02T13:25:33;23.90;;;13.60;;
77217;SDS011;66214;51.302;17.068;2024-03-02T13:28:02;24.20;;;14.60;;
77217;SDS011;66214;51.302;17.068;2024-03-02T13:30:32;23.60;;;13.80;;
77217;SDS011;66214;51.302;17.068;2024-03-02T13:33:03;23.50;;;13.30;;
77217;SDS011;66214;51.302;17.068;2024-03-02T13:35:37;24.10;;;14.30;;
77217;SDS011;66214;51.302;17.068;2024-03-02T13:38:06;22.70;;;12.40;;
77217;SDS011;66214;51.302;17.068;2024-03-02T13:40:34;22.40;;;13.20;;
77217;SDS011;66214;51.302;17.068;2024-03-02T13:43:05;24.80;;;13.60;;
77217;SDS011;66214;51.302;17.068;2024-03-02T13:45:35;24.30;;;13.70;;
77217;SDS011;66214;51.302;17.068;2024-03-02T13:48:10;23.80;;;13.90;;
77217;SDS011;66214;51.302;17.068;2024-03-02T13:50:40;25.60;;;14.20;;
77217;SDS011;66214;51.302;17.068;2024-03-02T13:53:09;22.70;;;12.90;;
77217;SDS011;66214;51.302;17.068;2024-03-02T13:55:40;24.60;;;14.10;;
77217;SDS011;66214;51.302;17.068;2024-03-02T13:58:15;25.90;;;14.90;;
77217;SDS011;66214;51.302;17.068;2024-03-02T14:03:54;23.10;;;13.50;;
77217;SDS011;66214;51.302;17.068;2024-03-02T14:06:24;23.10;;;13.60;;
77217;SDS011;66214;51.302;17.068;2024-03-02T17:03:54;27.60;;;15.30;;
77217;SDS011;66214;51.302;17.068;2024-03-02T17:06:23;29.10;;;17.20;;
77217;SDS011;66214;51.302;17.068;2024-03-02T17:08:52;35.60;;;18.40;;
77217;SDS011;66214;51.302;17.068;2024-03-02T17:11:22;31.50;;;17.80;;
77217;SDS011;66214;51.302;17.068;2024-03-02T17:13:50;35.70;;;18.70;;
77217;SDS011;66214;51.302;17.068;2024-03-02T17:16:25;33.60;;;17.70;;
77217;SDS011;66214;51.302;17.068;2024-03-02T17:18:54;33.20;;;17.60;;
77217;SDS011;66214;51.302;17.068;2024-03-02T17:21:23;33.00;;;18.70;;
77217;SDS011;66214;51.302;17.068;2024-03-02T17:23:53;33.40;;;17.80;;
77217;SDS011;66214;51.302;17.068;2024-03-02T17:26:22;35.50;;;19.00;;
77217;SDS011;66214;51.302;17.068;2024-03-02T17:28:51;36.60;;;18.30;;
77217;SDS011;66214;51.302;17.068;2024-03-02T17:31:23;31.20;;;17.20;;
77217;SDS011;66214;51.302;17.068;2024-03-02T17:33:52;33.70;;;17.60;;
77217;SDS011;66214;51.302;17.068;2024-03-02T17:36:20;32.60;;;19.00;;
77217;SDS011;66214;51.302;17.068;2024-03-02T17:38:49;35.30;;;19.90;;
77217;SDS011;66214;51.302;17.068;2024-03-02T17:41:20;35.80;;;20.20;;
77217;SDS011;66214;51.302;17.068;2024-03-02T17:43:49;35.30;;;20.40;;
77217;SDS011;66214;51.302;17.068;2024-03-02T17:46:19;35.70;;;19.60;;
77217;SDS011;66214;51.302;17.068;2024-03-02T17:48:48;37.30;;;20.60;;
77217;SDS011;66214;51.302;17.068;2024-03-02T17:51:17;37.30;;;20.20;;
77217;SDS011;66214;51.302;17.068;2024-03-02T17:53:46;40.50;;;22.00;;
77217;SDS011;66214;51.302;17.068;2024-03-02T17:56:17;37.80;;;20.20;;
77217;SDS011;66214;51.302;17.068;2024-03-02T17:58:47;41.80;;;21.10;;
77217;SDS011;66214;51.302;17.068;2024-03-02T18:01:17;39.30;;;21.30;;
77217;SDS011;66214;51.302;17.068;2024-03-02T18:03:46;36.80;;;20.20;;
77217;SDS011;66214;51.302;17.068;2024-03-02T18:06:17;37.80;;;19.50;;
77217;SDS011;66214;51.302;17.068;2024-03-02T18:08:46;33.70;;;19.00;;
77217;SDS011;66214;51.302;17.068;2024-03-02T18:11:18;34.90;;;19.30;;
77217;SDS011;66214;51.302;17.068;2024-03-02T18:13:47;37.00;;;20.40;;
77217;SDS011;66214;51.302;17.068;2024-03-02T18:16:19;40.00;;;19.60;;
77217;SDS011;66214;51.302;17.068;2024-03-02T18:18:48;33.60;;;18.70;;
77217;SDS011;66214;51.302;17.068;2024-03-02T18:21:16;36.50;;;18.90;;
77217;SDS011;66214;51.302;17.068;2024-03-02T18:23:45;36.30;;;20.60;;
77217;SDS011;66214;51.302;17.068;2024-03-02T18:26:14;36.70;;;20.20;;
77217;SDS011;66214;51.302;17.068;2024-03-02T18:28:45;36.30;;;20.10;;
77217;SDS011;66214;51.302;17.068;2024-03-02T18:31:15;36.50;;;20.90;;
77217;SDS011;66214;51.302;17.068;2024-03-02T18:33:49;39.80;;;20.30;;
77217;SDS011;66214;51.302;17.068;2024-03-02T18:36:19;37.90;;;19.60;;
77217;SDS011;66214;51.302;17.068;2024-03-02T18:38:48;37.80;;;20.10;;
77217;SDS011;66214;51.302;17.068;2024-03-02T18:41:19;37.00;;;20.40;;
77217;SDS011;66214;51.302;17.068;2024-03-02T18:43:47;34.20;;;19.40;;
77217;SDS011;66214;51.302;17.068;2024-03-02T18:46:16;36.90;;;19.70;;
77217;SDS011;66214;51.302;17.068;2024-03-02T18:48:44;34.40;;;17.90;;
77217;SDS011;66214;51.302;17.068;2024-03-02T18:51:13;31.30;;;17.90;;
77217;SDS011;66214;51.302;17.068;2024-03-02T18:53:41;30.50;;;17.90;;
77217;SDS011;66214;51.302;17.068;2024-03-02T18:56:14;31.10;;;17.40;;
77217;SDS011;66214;51.302;17.068;2024-03-02T18:58:42;30.50;;;17.60;;
77217;SDS011;66214;51.302;17.068;2024-03-02T19:01:11;32.40;;;16.70;;
77217;SDS011;66214;51.302;17.068;2024-03-02T19:03:44;29.30;;;16.50;;
77217;SDS011;66214;51.302;17.068;2024-03-02T19:06:17;26.70;;;15.00;;
77217;SDS011;66214;51.302;17.068;2024-03-02T19:08:45;26.10;;;14.70;;
77217;SDS011;66214;51.302;17.068;2024-03-02T19:11:15;29.50;;;16.20;;
77217;SDS011;66214;51.302;17.068;2024-03-02T19:13:45;28.80;;;16.50;;
77217;SDS011;66214;51.302;17.068;2024-03-02T19:16:15;30.00;;;16.00;;
77217;SDS011;66214;51.302;17.068;2024-03-02T19:18:44;28.20;;;15.50;;
77217;SDS011;66214;51.302;17.068;2024-03-02T19:21:14;31.40;;;15.80;;
77217;SDS011;66214;51.302;17.068;2024-03-02T19:23:42;30.70;;;16.90;;
77217;SDS011;66214;51.302;17.068;2024-03-02T19:26:15;29.60;;;16.90;;
77217;SDS011;66214;51.302;17.068;2024-03-02T19:28:48;30.40;;;16.40;;
77217;SDS011;66214;51.302;17.068;2024-03-02T19:31:16;29.80;;;17.00;;
77217;SDS011;66214;51.302;17.068;2024-03-02T19:33:45;32.10;;;17.00;;
77217;SDS011;66214;51.302;17.068;2024-03-02T19:36:39;30.90;;;17.60;;
77217;SDS011;66214;51.302;17.068;2024-03-02T19:39:33;29.70;;;16.10;;
77217;SDS011;66214;51.302;17.068;2024-03-02T19:42:05;30.40;;;16.00;;
77217;SDS011;66214;51.302;17.068;2024-03-02T19:44:34;28.10;;;15.20;;
77217;SDS011;66214;51.302;17.068;2024-03-02T19:47:03;24.80;;;14.70;;
77217;SDS011;66214;51.302;17.068;2024-03-02T19:49:55;24.20;;;14.40;;
77217;SDS011;66214;51.302;17.068;2024-03-02T19:52:27;24.00;;;13.80;;
77217;SDS011;66214;51.302;17.068;2024-03-02T19:54:59;23.50;;;14.30;;
77217;SDS011;66214;51.302;17.068;2024-03-02T19:57:29;22.60;;;13.20;;
77217;SDS011;66214;51.302;17.068;2024-03-02T19:59:59;24.60;;;13.90;;
77217;SDS011;66214;51.302;17.068;2024-03-02T20:02:27;25.10;;;13.20;;
77217;SDS011;66214;51.302;17.068;2024-03-02T20:04:56;24.60;;;12.20;;
77217;SDS011;66214;51.302;17.068;2024-03-02T20:07:26;23.30;;;12.60;;
77217;SDS011;66214;51.302;17.068;2024-03-02T20:09:57;22.90;;;12.90;;
77217;SDS011;66214;51.302;17.068;2024-03-02T20:12:28;23.20;;;12.90;;
77217;SDS011;66214;51.302;17.068;2024-03-02T20:15:00;22.00;;;12.20;;
77217;SDS011;66214;51.302;17.068;2024-03-02T20:17:29;20.70;;;11.10;;
77217;SDS011;66214;51.302;17.068;2024-03-02T20:20:01;19.30;;;11.00;;
77217;SDS011;66214;51.302;17.068;2024-03-02T20:22:32;19.70;;;10.80;;
77217;SDS011;66214;51.302;17.068;2024-03-02T20:25:03;20.00;;;10.30;;
77217;SDS011;66214;51.302;17.068;2024-03-02T20:27:32;19.60;;;10.50;;
77217;SDS011;66214;51.302;17.068;2024-03-02T20:30:02;19.00;;;10.10;;
77217;SDS011;66214;51.302;17.068;2024-03-02T20:32:34;19.50;;;10.10;;
77217;SDS011;66214;51.302;17.068;2024-03-02T20:35:03;18.00;;;9.70;;
77217;SDS011;66214;51.302;17.068;2024-03-02T20:37:32;16.10;;;9.00;;
77217;SDS011;66214;51.302;17.068;2024-03-02T20:40:02;16.80;;;9.40;;
77217;SDS011;66214;51.302;17.068;2024-03-02T20:42:34;16.50;;;8.80;;
77217;SDS011;66214;51.302;17.068;2024-03-02T20:45:03;16.00;;;9.10;;
77217;SDS011;66214;51.302;17.068;2024-03-02T20:47:39;16.90;;;8.30;;
77217;SDS011;66214;51.302;17.068;2024-03-02T20:53:32;15.00;;;7.50;;
77217;SDS011;66214;51.302;17.068;2024-03-02T20:56:03;14.30;;;7.80;;
77217;SDS011;66214;51.302;17.068;2024-03-02T20:58:33;14.10;;;7.30;;